Cuba, AL

11:42 PM CDT on September 18, 2014 (GMT -0500)
Meridian Naval Air Station | Change Station
CLOSE
Current Station
Airport
Location: Meridian NAS,
Elevation: 318 ft
Nearby Weather Stations

Elev 318 ft 32.55 °N, 88.56 °W | Updated 46 minutes ago

Rain
Rain
71 °F
Feels Like 71 °F
N
8
Wind Variable Wind from West

Today
High -- | Low -- °F
--% Chance of Precip.
Yesterday
High -- | Low -- °F
Precip. -- in
6:39 AM 6:55 PM
Waning Crescent, 22% visible
Pressure 30.05 in
Visibility 5.0 miles
Clouds Few 2700 ft
Mostly Cloudy 5000 ft
Overcast 9500 ft
Dew Point 69 °F
Humidity 93%
Rainfall 0.26 in
Snow Depth Not available.
UV 0 out of 12
Pollen 9.30 out of 12
Air Quality Not available.
Flu Activity Not available.
METAR KNMM 190356Z 27007KT 5SM -RA FEW027 BKN050 OVC095 22/21 A3003 RMK AO2 RAB16 SLP176 T2 SET P0024 T02170206 $

More Conditions Fewer Conditions

Pressure 30.05 in
Visibility 5.0 miles
Clouds Few 2700 ft
Mostly Cloudy 5000 ft
Overcast 9500 ft
Dew Point 69 °F
Humidity 93%
Rainfall 0.26 in
Snow Depth Not available.
UV 0 out of 12
Pollen 9.30 out of 12
Air Quality Not available.
Flu Activity Not available.
METAR KNMM 190356Z 27007KT 5SM -RA FEW027 BKN050 OVC095 22/21 A3003 RMK AO2 RAB16 SLP176 T2 SET P0024 T02170206 $

More Conditions Fewer Conditions

10-Day Weather Forecast

Almanac

Astronomy

Sep. 18, 2014 Rise Set
Actual Time 6:39 AM CDT 6:55 PM CDT
Civil Twilight 6:14 AM CDT 7:19 PM CDT
Nautical Twilight 5:45 AM CDT 7:48 PM CDT
Astronomical Twilight 5:16 AM CDT 8:17 PM CDT
Moon 1:44 AM CDT (9/18) 3:34 PM CDT (9/18)
Length of Visible Light 13h 05m
Length of Day
12h 16m
Tomorrow will be 1m 58s shorter.
Waning Crescent, 22% of the Moon is Illuminated
Sep 19
Waning Crescent
Sep 24
New
Oct 1
First Quarter
Oct 8
Full
Oct 15
Last Quarter

Yesterday's Extremes

State Highs State Lows

Community

WunderPhotos

Upload Photos

1,754,558 photos uploaded!

Nearby

Snow Depth

Station Depth Elevation
No new snow has been reported.

Earthquake Activity

City Distance Mag. Time & Date
No recent earthquake activity has been reported nearby.
Minimum magnitude displayed is 2.5.

Coastal Water Temperatures

Place Temperature
No Stations Reporting

Nearby Weather Stations